Time;durP1;ratioP1;P1;durP2;ratioP2;P2;SDS_P1;SDS_P2;PMS_P1;PMS_P2;Temp;Humidity;BMP_temperature;BMP_pressure;BME280_temperature;BME280_humidity;BME280_pressure;Samples;Min_cycle;Max_cycle;Signal;HPM_P1;HPM_P2
2022/11/23 00:01:20;;;;;;;25.12;12.05;;;;;;;5.46;92.46;98457.00;4484098;32;33327;-80
2022/11/23 00:03:50;;;;;;;18.62;10.80;;;;;;;5.39;93.30;98452.41;4479475;32;33404;-80
2022/11/23 00:06:18;;;;;;;24.02;12.23;;;;;;;5.34;93.47;98452.22;4485288;32;33837;-80
2022/11/23 00:08:45;;;;;;;18.15;9.93;;;;;;;5.60;92.36;98458.50;4474782;32;33874;-80
2022/11/23 00:11:13;;;;;;;18.12;8.95;;;;;;;5.48;92.07;98455.38;4483244;32;33593;-79
2022/11/23 00:13:42;;;;;;;21.98;10.43;;;;;;;5.42;93.79;98456.00;4483393;32;33560;-79
2022/11/23 00:16:18;;;;;;;19.48;10.48;;;;;;;5.66;91.94;98455.28;4470692;32;33375;-80
2022/11/23 00:18:46;;;;;;;18.48;9.75;;;;;;;5.63;92.49;98460.31;4485171;32;33793;-80
2022/11/23 00:21:16;;;;;;;18.37;9.23;;;;;;;5.97;90.40;98462.63;4482353;32;33142;-80
2022/11/23 00:23:44;;;;;;;20.17;9.85;;;;;;;5.58;91.30;98460.13;4469353;32;33262;-80
2022/11/23 00:26:12;;;;;;;17.67;9.15;;;;;;;5.53;92.72;98461.59;4477979;32;34045;-80
2022/11/23 00:28:40;;;;;;;20.48;9.30;;;;;;;5.84;91.15;98457.75;4479796;32;33889;-80
2022/11/23 00:31:10;;;;;;;20.05;9.40;;;;;;;5.85;90.64;98446.66;4484578;32;33457;-80
2022/11/23 00:33:38;;;;;;;20.23;9.68;;;;;;;5.29;93.21;98459.72;4480474;32;33859;-80
2022/11/23 00:36:09;;;;;;;17.55;8.88;;;;;;;5.52;92.56;98452.13;4483371;32;33348;-80
2022/11/23 00:38:37;;;;;;;20.25;9.55;;;;;;;5.42;92.54;98447.41;4484734;32;33520;-80
2022/11/23 00:41:11;;;;;;;16.60;9.25;;;;;;;5.41;93.04;98448.22;4483507;32;33935;-80
2022/11/23 00:43:39;;;;;;;19.50;9.13;;;;;;;5.17;94.16;98455.72;4482596;32;33565;-80
2022/11/23 00:46:20;;;;;;;19.55;8.27;;;;;;;5.28;93.87;98452.81;4476658;32;34125;-81
2022/11/23 00:48:49;;;;;;;18.83;9.07;;;;;;;5.34;93.38;98459.91;4484807;32;33732;-81
2022/11/23 00:51:19;;;;;;;17.30;9.13;;;;;;;5.37;93.22;98457.50;4484614;32;33529;-80
2022/11/23 00:53:48;;;;;;;19.27;8.98;;;;;;;5.08;94.87;98440.78;4484630;32;33384;-80
2022/11/23 00:56:17;;;;;;;18.10;8.80;;;;;;;5.09;95.41;98445.13;4483390;32;33587;-80
2022/11/23 00:58:51;;;;;;;20.33;8.55;;;;;;;5.07;95.08;98446.75;4484234;32;33680;-80
2022/11/23 01:01:21;;;;;;;20.00;8.55;;;;;;;5.20;94.77;98432.78;4482991;31;33246;-80
2022/11/23 01:03:54;;;;;;;18.58;9.32;;;;;;;5.18;94.23;98436.97;4486368;31;33972;-80
2022/11/23 01:06:27;;;;;;;17.20;8.95;;;;;;;5.64;92.31;98452.66;4478578;31;33474;-80
2022/11/23 01:08:57;;;;;;;16.05;8.68;;;;;;;5.42;93.05;98449.97;4496632;31;33758;-80
2022/11/23 01:11:27;;;;;;;16.83;8.40;;;;;;;5.30;93.13;98446.06;4496324;31;34070;-80
2022/11/23 01:13:54;;;;;;;15.98;8.00;;;;;;;5.22;94.00;98432.03;4477381;31;32801;-80
2022/11/23 01:16:26;;;;;;;14.40;8.30;;;;;;;5.23;94.13;98438.03;4491250;31;33854;-80
2022/11/23 01:18:58;;;;;;;15.82;8.85;;;;;;;5.24;94.13;98430.41;4490609;31;33819;-81
2022/11/23 01:21:27;;;;;;;19.80;9.07;;;;;;;5.11;94.33;98436.69;4484670;31;33165;-80
2022/11/23 01:23:55;;;;;;;17.55;8.90;;;;;;;5.40;93.25;98431.06;4461698;31;33861;-81
2022/11/23 01:26:22;;;;;;;16.83;8.13;;;;;;;5.42;93.35;98424.31;4491555;31;34516;-79
2022/11/23 01:28:50;;;;;;;16.92;8.40;;;;;;;5.16;93.47;98405.19;4488893;31;33864;-80
2022/11/23 01:31:21;;;;;;;18.12;9.23;;;;;;;5.23;93.27;98422.63;4482824;31;31928;-80
2022/11/23 01:33:53;;;;;;;16.62;8.30;;;;;;;5.23;93.46;98420.94;4482252;31;32713;-80
2022/11/23 01:36:23;;;;;;;16.12;7.93;;;;;;;5.37;92.79;98415.50;4486108;31;33491;-79
2022/11/23 01:38:51;;;;;;;15.63;8.10;;;;;;;5.19;93.05;98413.91;4487122;31;34015;-80
2022/11/23 01:41:23;;;;;;;14.20;7.40;;;;;;;5.47;92.15;98417.69;4488185;31;32886;-79
2022/11/23 01:43:50;;;;;;;14.87;7.57;;;;;;;5.28;92.14;98422.00;4496253;31;33824;-80
2022/11/23 01:46:18;;;;;;;17.98;8.07;;;;;;;5.23;92.27;98413.22;4483592;31;33343;-80
2022/11/23 01:48:49;;;;;;;15.93;8.45;;;;;;;5.55;90.87;98406.03;4483724;31;34029;-80
2022/11/23 01:51:21;;;;;;;14.98;7.32;;;;;;;5.59;90.54;98402.78;4483359;32;32845;-80
2022/11/23 01:53:51;;;;;;;12.63;7.20;;;;;;;5.58;90.42;98411.31;4480482;32;33556;-80
2022/11/23 01:56:22;;;;;;;12.55;7.15;;;;;;;5.28;91.96;98401.47;4477064;32;33552;-80
2022/11/23 01:58:51;;;;;;;15.00;8.35;;;;;;;5.44;91.26;98404.69;4467588;32;33662;-80
2022/11/23 02:01:19;;;;;;;16.20;7.62;;;;;;;5.42;92.17;98402.06;4484715;32;32866;-81
2022/11/23 02:03:48;;;;;;;16.45;8.32;;;;;;;5.35;91.77;98406.88;4485307;32;33636;-80
2022/11/23 02:06:17;;;;;;;17.30;7.90;;;;;;;5.30;93.02;98410.13;4483907;32;34558;-80
2022/11/23 02:08:46;;;;;;;15.48;7.40;;;;;;;5.31;92.81;98393.91;4482289;32;33814;-80
2022/11/23 02:11:15;;;;;;;13.10;7.15;;;;;;;5.41;92.19;98402.00;4480017;32;34068;-80
2022/11/23 02:13:46;;;;;;;13.20;6.90;;;;;;;5.23;93.35;98402.97;4485624;32;33828;-79
2022/11/23 02:16:14;;;;;;;13.05;6.37;;;;;;;5.28;92.81;98406.59;4482695;32;34023;-80
2022/11/23 02:18:44;;;;;;;12.20;6.85;;;;;;;5.40;92.25;98406.25;4485755;32;34509;-81
2022/11/23 02:21:11;;;;;;;13.15;7.35;;;;;;;5.17;93.42;98397.56;4492498;31;33780;-80
2022/11/23 02:23:56;;;;;;;14.35;7.12;;;;;;;5.19;93.04;98408.78;4483361;32;32282;-80
2022/11/23 02:26:29;;;;;;;12.40;6.55;;;;;;;5.16;93.21;98405.19;4485644;32;34733;-80
2022/11/23 02:29:19;;;;;;;13.88;7.35;;;;;;;5.33;92.22;98414.50;4484508;32;34121;-80
2022/11/23 02:31:46;;;;;;;13.57;7.28;;;;;;;5.23;92.50;98410.66;4478200;32;34071;-80
2022/11/23 02:34:32;;;;;;;14.30;7.10;;;;;;;5.26;93.22;98404.81;4483750;32;33740;-80
2022/11/23 02:37:00;;;;;;;13.60;7.55;;;;;;;5.40;92.87;98415.66;4481394;32;33844;-80
2022/11/23 02:39:35;;;;;;;16.20;7.72;;;;;;;5.66;91.14;98403.91;4484191;32;33727;-80
2022/11/23 02:42:04;;;;;;;13.98;7.05;;;;;;;5.71;89.95;98398.13;4485315;32;34261;-80
2022/11/23 02:44:54;;;;;;;14.00;7.87;;;;;;;5.48;91.77;98401.44;4485626;32;33876;-80
2022/11/23 02:47:21;;;;;;;14.52;7.10;;;;;;;5.56;90.89;98407.78;4483187;32;33617;-80
2022/11/23 02:49:49;;;;;;;15.85;7.07;;;;;;;5.70;90.36;98393.84;4480877;32;35171;-80
2022/11/23 02:52:18;;;;;;;15.85;7.28;;;;;;;5.67;90.28;98391.13;4477918;32;33282;-80
2022/11/23 02:54:45;;;;;;;13.43;7.12;;;;;;;5.69;89.80;98389.50;4484998;31;33848;-80
2022/11/23 02:57:13;;;;;;;13.73;6.93;;;;;;;5.72;90.33;98405.03;4484992;32;34754;-80
2022/11/23 02:59:43;;;;;;;14.48;6.55;;;;;;;5.59;91.09;98397.62;4484910;32;33993;-79
2022/11/23 03:02:11;;;;;;;14.85;6.72;;;;;;;5.29;91.11;98410.94;4485330;32;33420;-80
2022/11/23 03:04:39;;;;;;;13.45;6.25;;;;;;;5.30;91.59;98409.25;4484815;32;33594;-79
2022/11/23 03:07:06;;;;;;;12.85;6.75;;;;;;;5.11;92.08;98405.00;4485082;32;34603;-80
2022/11/23 03:09:34;;;;;;;11.95;6.37;;;;;;;5.34;91.37;98415.41;4485321;32;34481;-80
2022/11/23 03:12:02;;;;;;;13.60;7.10;;;;;;;5.53;90.61;98401.66;4484765;32;34055;-80
2022/11/23 03:14:29;;;;;;;12.63;6.25;;;;;;;5.09;92.70;98401.50;4484953;32;34545;-80
2022/11/23 03:16:58;;;;;;;14.82;6.57;;;;;;;5.19;92.60;98393.37;4485511;32;34707;-80
2022/11/23 03:19:26;;;;;;;14.45;6.97;;;;;;;5.57;90.75;98383.84;4484362;32;34140;-79
2022/11/23 03:21:53;;;;;;;14.65;6.62;;;;;;;5.42;90.79;98390.91;4483906;32;34454;-80
2022/11/23 03:24:23;;;;;;;13.93;6.85;;;;;;;5.47;90.36;98392.00;4479825;32;34482;-80
2022/11/23 03:26:51;;;;;;;15.00;7.00;;;;;;;5.45;90.83;98414.19;4481727;32;34639;-80
2022/11/23 03:29:19;;;;;;;17.20;7.25;;;;;;;5.55;89.48;98406.03;4485363;32;33771;-80
2022/11/23 03:31:46;;;;;;;13.13;6.97;;;;;;;5.23;91.66;98405.53;4484181;32;33627;-80
2022/11/23 03:34:14;;;;;;;13.55;7.45;;;;;;;5.36;90.91;98403.50;4484592;32;33556;-79
2022/11/23 03:36:42;;;;;;;15.20;7.72;;;;;;;5.09;92.60;98406.63;4483720;32;34074;-80
2022/11/23 03:39:10;;;;;;;14.32;6.93;;;;;;;5.05;92.87;98407.31;4484927;32;33506;-80
2022/11/23 03:41:39;;;;;;;13.65;6.87;;;;;;;5.18;92.57;98399.34;4485165;32;33424;-80
2022/11/23 03:44:07;;;;;;;14.00;6.93;;;;;;;5.42;91.44;98399.50;4484621;32;34693;-80
2022/11/23 03:46:35;;;;;;;13.95;6.60;;;;;;;5.51;90.36;98401.59;4484707;32;33594;-80
2022/11/23 03:49:02;;;;;;;12.18;6.35;;;;;;;5.77;89.16;98392.37;4483267;32;34451;-80
2022/11/23 03:51:30;;;;;;;11.40;6.53;;;;;;;5.56;89.54;98386.34;4484386;32;33526;-80
2022/11/23 03:53:57;;;;;;;11.55;6.40;;;;;;;5.16;91.52;98400.06;4474911;32;34636;-80
2022/11/23 03:56:24;;;;;;;13.05;6.18;;;;;;;5.44;89.94;98408.13;4485247;32;33977;-80
2022/11/23 03:58:52;;;;;;;12.35;6.53;;;;;;;5.43;90.07;98400.41;4484962;32;33879;-79
2022/11/23 04:01:20;;;;;;;12.35;6.47;;;;;;;5.15;91.73;98394.06;4481271;32;33291;-80
2022/11/23 04:03:49;;;;;;;11.40;6.30;;;;;;;5.45;90.37;98406.47;4467790;32;33005;-79
2022/11/23 04:06:17;;;;;;;14.68;7.55;;;;;;;5.18;91.35;98389.06;4484911;32;33846;-80
2022/11/23 04:08:45;;;;;;;12.05;6.35;;;;;;;5.21;92.78;98394.31;4484823;32;34260;-80
2022/11/23 04:11:14;;;;;;;11.98;6.07;;;;;;;5.31;91.42;98391.34;4485096;32;33506;-80
2022/11/23 04:13:41;;;;;;;12.00;5.87;;;;;;;5.65;90.11;98397.88;4484672;32;33772;-80
2022/11/23 04:16:08;;;;;;;11.18;5.60;;;;;;;5.34;90.31;98406.00;4484856;32;34108;-80
2022/11/23 04:18:36;;;;;;;12.90;6.03;;;;;;;5.22;91.32;98405.47;4484667;32;34542;-80
2022/11/23 04:21:04;;;;;;;10.38;6.05;;;;;;;5.26;91.15;98403.09;4483556;32;34212;-80
2022/11/23 04:23:31;;;;;;;11.18;5.68;;;;;;;5.44;89.94;98397.88;4472011;32;33736;-81
2022/11/23 04:25:59;;;;;;;12.63;5.10;;;;;;;5.22;91.06;98396.09;4483204;32;33729;-80
2022/11/23 04:28:28;;;;;;;11.02;5.97;;;;;;;5.34;91.76;98425.66;4483533;32;34678;-79
2022/11/23 04:30:57;;;;;;;12.50;5.87;;;;;;;5.38;90.66;98407.87;4484624;32;33024;-80
2022/11/23 04:33:27;;;;;;;15.63;6.68;;;;;;;5.46;90.54;98408.22;4484266;32;34476;-80
2022/11/23 04:35:57;;;;;;;10.20;5.70;;;;;;;5.31;91.19;98406.75;4484793;32;33959;-80
2022/11/23 04:38:25;;;;;;;10.25;5.75;;;;;;;5.66;89.46;98407.37;4482593;32;33799;-79
2022/11/23 04:40:53;;;;;;;12.10;6.25;;;;;;;5.51;90.85;98414.44;4484611;32;33372;-80
2022/11/23 04:43:20;;;;;;;11.20;5.50;;;;;;;5.19;91.39;98411.34;4484954;32;33813;-80
2022/11/23 04:45:49;;;;;;;10.48;5.15;;;;;;;5.05;92.57;98415.00;4483043;32;34653;-80
2022/11/23 04:48:20;;;;;;;12.35;5.95;;;;;;;5.40;90.86;98410.53;4477171;32;34526;-80
2022/11/23 04:50:48;;;;;;;11.82;5.80;;;;;;;5.45;90.77;98414.19;4484115;32;33420;-80
2022/11/23 04:53:22;;;;;;;14.18;6.00;;;;;;;5.19;91.81;98408.78;4484450;32;33325;-80
2022/11/23 04:55:50;;;;;;;11.23;5.40;;;;;;;5.58;90.02;98402.72;4484239;32;33999;-80
2022/11/23 04:58:17;;;;;;;14.02;5.40;;;;;;;5.38;90.46;98412.16;4483829;32;34046;-81
2022/11/23 05:00:49;;;;;;;10.07;5.12;;;;;;;5.42;90.59;98414.03;4483846;32;34164;-79
2022/11/23 05:03:17;;;;;;;10.05;5.47;;;;;;;5.41;89.97;98404.56;4482361;32;34443;-79
2022/11/23 05:05:44;;;;;;;9.48;5.18;;;;;;;5.28;90.49;98411.75;4484791;32;34368;-79
2022/11/23 05:08:12;;;;;;;9.45;5.35;;;;;;;5.29;91.27;98413.50;4484594;32;34484;-80
2022/11/23 05:10:42;;;;;;;9.23;4.37;;;;;;;5.11;91.48;98417.84;4483346;32;34152;-80
2022/11/23 05:13:10;;;;;;;11.12;5.93;;;;;;;5.21;91.45;98422.56;4484450;32;33782;-80
2022/11/23 05:15:37;;;;;;;9.82;4.97;;;;;;;5.07;92.39;98421.09;4482396;32;32177;-80
2022/11/23 05:18:06;;;;;;;9.10;4.45;;;;;;;5.61;89.97;98408.84;4483217;32;33893;-80
2022/11/23 05:20:33;;;;;;;10.88;5.12;;;;;;;5.30;90.22;98415.25;4484210;32;33369;-79
2022/11/23 05:23:00;;;;;;;10.13;4.68;;;;;;;5.31;90.91;98417.03;4484578;32;33535;-79
2022/11/23 05:25:28;;;;;;;12.05;5.20;;;;;;;5.18;91.38;98414.75;4470311;32;34609;-80
2022/11/23 05:27:56;;;;;;;9.07;4.35;;;;;;;5.09;91.58;98411.75;4484156;32;34475;-80
2022/11/23 05:30:30;;;;;;;8.93;4.50;;;;;;;4.98;92.20;98405.28;4483804;31;34681;-80
2022/11/23 05:33:01;;;;;;;9.40;4.35;;;;;;;5.22;91.42;98410.63;4482242;32;33958;-80
2022/11/23 05:35:29;;;;;;;11.20;4.62;;;;;;;5.15;91.06;98403.44;4484100;31;34607;-79
2022/11/23 05:37:57;;;;;;;8.60;4.18;;;;;;;5.37;90.34;98395.88;4483984;32;34269;-79
2022/11/23 05:40:25;;;;;;;9.38;4.37;;;;;;;5.59;89.58;98389.94;4482539;32;33281;-79
2022/11/23 05:42:57;;;;;;;7.32;4.30;;;;;;;5.60;89.08;98388.22;4482849;32;34327;-79
2022/11/23 05:45:25;;;;;;;8.85;4.62;;;;;;;5.55;89.40;98390.63;4480964;32;33875;-79
2022/11/23 05:47:55;;;;;;;8.48;4.12;;;;;;;5.74;87.74;98396.50;4481483;32;32529;-79
2022/11/23 05:50:25;;;;;;;9.50;4.00;;;;;;;5.54;89.40;98387.97;4469707;32;33656;-79
2022/11/23 05:53:07;;;;;;;8.82;4.28;;;;;;;5.43;89.46;98395.25;4479435;32;33594;-81
2022/11/23 05:55:35;;;;;;;8.50;4.30;;;;;;;5.46;89.59;98400.50;4481625;32;32429;-80
2022/11/23 05:58:03;;;;;;;9.27;4.35;;;;;;;5.79;88.75;98400.16;4480257;32;34478;-80
2022/11/23 06:00:31;;;;;;;9.90;4.43;;;;;;;5.66;87.99;98397.09;4482215;32;33814;-80
2022/11/23 06:03:01;;;;;;;10.57;4.57;;;;;;;5.32;90.45;98398.22;4480706;32;32279;-80
2022/11/23 06:05:30;;;;;;;8.35;4.97;;;;;;;5.54;89.60;98406.84;4481886;32;33866;-79
2022/11/23 06:07:57;;;;;;;8.80;4.87;;;;;;;5.48;89.81;98404.88;4483279;32;33604;-80
2022/11/23 06:10:25;;;;;;;8.35;4.35;;;;;;;5.26;90.79;98405.66;4483427;32;33425;-81
2022/11/23 06:12:54;;;;;;;11.25;5.28;;;;;;;5.56;89.38;98409.47;4483268;31;33008;-80
2022/11/23 06:15:22;;;;;;;8.88;4.35;;;;;;;5.61;89.07;98421.69;4485374;32;33782;-79
2022/11/23 06:17:50;;;;;;;9.35;4.87;;;;;;;5.61;88.82;98429.41;4485418;32;34567;-80
2022/11/23 06:20:18;;;;;;;8.25;4.20;;;;;;;5.58;89.06;98434.44;4485358;32;33213;-80
2022/11/23 06:22:52;;;;;;;12.88;5.75;;;;;;;5.24;91.22;98421.84;4484671;32;34388;-80
2022/11/23 06:25:20;;;;;;;10.43;4.70;;;;;;;5.61;89.61;98426.84;4485239;32;33996;-80
2022/11/23 06:27:55;;;;;;;7.50;4.18;;;;;;;5.86;88.79;98423.59;4485230;32;33796;-80
2022/11/23 06:30:24;;;;;;;9.48;4.22;;;;;;;5.66;89.02;98430.50;4483695;32;33200;-80
2022/11/23 06:32:52;;;;;;;11.98;4.68;;;;;;;5.45;89.62;98429.59;4483235;31;33930;-80
2022/11/23 06:35:20;;;;;;;7.57;4.12;;;;;;;5.60;88.91;98430.22;4483381;31;34038;-80
2022/11/23 06:37:49;;;;;;;8.82;4.20;;;;;;;5.45;89.01;98434.72;4485361;32;34568;-81
2022/11/23 06:40:17;;;;;;;8.55;4.35;;;;;;;5.77;88.55;98433.50;4483628;32;33692;-81
2022/11/23 06:42:45;;;;;;;11.12;4.70;;;;;;;5.55;88.86;98431.72;4483662;32;34573;-80
2022/11/23 06:45:13;;;;;;;10.15;4.85;;;;;;;5.41;89.93;98437.94;4485318;32;34615;-81
2022/11/23 06:47:42;;;;;;;12.68;4.95;;;;;;;5.27;90.96;98427.97;4485197;32;33826;-81
2022/11/23 06:50:10;;;;;;;9.25;4.82;;;;;;;5.50;90.09;98428.97;4484838;32;32083;-81
2022/11/23 06:52:38;;;;;;;8.50;4.37;;;;;;;5.68;89.73;98434.00;4485293;32;33805;-81
2022/11/23 06:55:05;;;;;;;10.40;4.55;;;;;;;5.45;90.13;98427.00;4484302;31;33816;-80
2022/11/23 06:57:33;;;;;;;10.65;4.90;;;;;;;5.71;89.59;98426.41;4495444;31;32632;-81
2022/11/23 07:00:04;;;;;;;9.32;4.50;;;;;;;5.81;89.09;98426.78;4489378;31;34098;-81
2022/11/23 07:02:31;;;;;;;11.32;5.10;;;;;;;5.31;90.91;98437.56;4485106;32;33359;-80
2022/11/23 07:04:59;;;;;;;7.72;4.07;;;;;;;5.60;90.31;98443.09;4483930;31;33342;-81
2022/11/23 07:07:27;;;;;;;9.13;4.30;;;;;;;5.62;90.07;98444.03;4485021;31;34289;-81
2022/11/23 07:09:55;;;;;;;9.43;4.93;;;;;;;5.84;88.47;98434.62;4484833;31;33721;-81
2022/11/23 07:12:25;;;;;;;8.13;3.87;;;;;;;5.50;90.77;98439.25;4480802;32;35113;-81
2022/11/23 07:14:53;;;;;;;11.35;4.60;;;;;;;5.56;90.49;98448.00;4485529;32;34632;-81
2022/11/23 07:17:20;;;;;;;9.25;4.45;;;;;;;5.84;89.53;98429.50;4484151;32;33618;-80
2022/11/23 07:19:48;;;;;;;9.82;4.12;;;;;;;5.61;90.39;98441.38;4484252;32;33238;-80
2022/11/23 07:22:16;;;;;;;12.27;5.37;;;;;;;5.66;90.75;98445.91;4485635;32;34538;-81
2022/11/23 07:24:43;;;;;;;13.00;5.80;;;;;;;5.76;90.35;98441.16;4484280;32;33775;-82
2022/11/23 07:27:15;;;;;;;9.50;5.18;;;;;;;6.00;89.47;98436.16;4482818;32;33990;-81
2022/11/23 07:29:43;;;;;;;10.00;5.05;;;;;;;6.27;88.57;98451.81;4480762;32;33052;-81
2022/11/23 07:32:13;;;;;;;9.15;4.18;;;;;;;6.14;88.85;98455.59;4482976;31;32467;-79
2022/11/23 07:34:41;;;;;;;8.57;4.03;;;;;;;6.14;88.60;98455.59;4482636;32;33301;-81
2022/11/23 07:37:09;;;;;;;9.32;4.22;;;;;;;6.15;88.67;98456.50;4480727;31;33919;-81
2022/11/23 07:39:37;;;;;;;8.90;4.22;;;;;;;6.00;89.10;98451.59;4485107;32;33966;-81
2022/11/23 07:42:24;;;;;;;8.30;4.10;;;;;;;6.21;88.32;98457.59;4472151;32;33865;-81
2022/11/23 07:45:08;;;;;;;8.80;4.32;;;;;;;6.45;87.68;98457.72;4482769;32;33782;-81
2022/11/23 07:47:36;;;;;;;7.78;4.03;;;;;;;6.61;86.57;98458.31;4485165;32;33453;-81
2022/11/23 07:50:09;;;;;;;7.35;3.75;;;;;;;6.35;87.41;98465.88;4484982;32;33103;-81
2022/11/23 07:52:37;;;;;;;8.38;4.05;;;;;;;6.46;87.19;98468.87;4484421;32;33950;-81
2022/11/23 07:55:04;;;;;;;8.45;3.78;;;;;;;6.08;88.56;98461.37;4486709;31;33788;-80
2022/11/23 07:57:32;;;;;;;9.68;4.10;;;;;;;6.72;86.62;98467.28;4479970;32;33223;-80
2022/11/23 07:59:59;;;;;;;8.65;3.65;;;;;;;6.41;87.56;98475.53;4484493;32;33094;-81
2022/11/23 08:02:27;;;;;;;6.47;3.58;;;;;;;6.58;87.06;98478.75;4484917;32;34573;-81
2022/11/23 08:04:55;;;;;;;9.07;4.50;;;;;;;6.63;86.56;98477.25;4476850;32;34061;-79
2022/11/23 08:07:22;;;;;;;8.27;4.00;;;;;;;6.77;85.81;98476.09;4483577;32;34662;-81
2022/11/23 08:09:49;;;;;;;7.85;3.75;;;;;;;6.78;85.69;98483.00;4483610;32;33257;-80
2022/11/23 08:12:17;;;;;;;6.80;3.45;;;;;;;6.88;84.97;98473.94;4484546;32;32371;-81
2022/11/23 08:14:44;;;;;;;7.43;3.33;;;;;;;6.92;85.57;98482.66;4483069;31;33788;-80
2022/11/23 08:17:12;;;;;;;7.55;4.03;;;;;;;6.90;84.97;98480.00;4494727;31;34091;-79
2022/11/23 08:19:39;;;;;;;9.43;3.92;;;;;;;6.98;85.16;98488.03;4482677;31;33161;-80
2022/11/23 08:22:07;;;;;;;7.05;3.45;;;;;;;7.03;84.60;98481.34;4492971;31;34022;-80
2022/11/23 08:24:34;;;;;;;7.65;3.85;;;;;;;6.73;86.45;98479.34;4482935;31;34546;-80
2022/11/23 08:27:02;;;;;;;6.65;3.42;;;;;;;7.26;84.51;98487.34;4496414;31;33715;-80
2022/11/23 08:29:29;;;;;;;8.35;3.50;;;;;;;7.28;83.72;98481.44;4485882;31;34203;-80
2022/11/23 08:31:57;;;;;;;10.48;3.95;;;;;;;7.30;83.88;98484.06;4494653;31;33568;-80
2022/11/23 08:34:25;;;;;;;5.95;3.40;;;;;;;7.15;84.33;98489.53;4490733;31;34601;-80
2022/11/23 08:36:52;;;;;;;7.65;4.03;;;;;;;7.07;85.35;98486.69;4485328;31;33790;-80
2022/11/23 08:39:19;;;;;;;7.95;3.72;;;;;;;7.15;85.16;98488.66;4497150;31;33395;-80
2022/11/23 08:41:47;;;;;;;8.70;4.75;;;;;;;7.18;85.12;98488.75;4488337;31;33842;-80
2022/11/23 08:44:14;;;;;;;9.25;4.40;;;;;;;7.07;85.60;98485.81;4490417;31;32677;-81
2022/11/23 08:46:42;;;;;;;6.25;3.60;;;;;;;7.21;84.58;98484.59;4483322;32;33843;-81
2022/11/23 08:49:09;;;;;;;6.97;4.20;;;;;;;7.43;84.31;98495.69;4483353;32;33422;-80
2022/11/23 08:51:37;;;;;;;8.52;4.70;;;;;;;7.46;84.39;98486.38;4483996;32;33621;-80
2022/11/23 08:54:04;;;;;;;7.20;3.60;;;;;;;7.73;83.14;98495.91;4484756;32;34502;-80
2022/11/23 08:56:32;;;;;;;6.90;3.65;;;;;;;7.60;83.36;98498.87;4482006;32;33699;-80
2022/11/23 08:58:59;;;;;;;6.82;3.42;;;;;;;7.59;83.51;98500.59;4481658;32;32691;-80
2022/11/23 09:01:26;;;;;;;6.60;3.37;;;;;;;7.72;82.71;98503.59;4485178;31;33920;-81
2022/11/23 09:03:54;;;;;;;8.15;4.57;;;;;;;7.23;84.58;98506.16;4491818;31;33864;-81
2022/11/23 09:06:27;;;;;;;6.82;3.50;;;;;;;7.51;83.92;98496.81;4491328;31;34102;-81
2022/11/23 09:08:55;;;;;;;8.23;4.43;;;;;;;7.68;83.43;98508.63;4481313;31;33294;-80
2022/11/23 09:11:24;;;;;;;8.10;3.85;;;;;;;7.93;82.21;98512.06;4486749;31;34688;-80
2022/11/23 09:13:51;;;;;;;7.22;3.33;;;;;;;7.92;82.16;98518.06;4480519;32;33944;-81
2022/11/23 09:16:19;;;;;;;8.50;4.03;;;;;;;8.08;81.18;98510.00;4480293;32;33561;-80
2022/11/23 09:18:48;;;;;;;9.05;4.07;;;;;;;7.83;82.43;98507.41;4483274;32;34053;-81
2022/11/23 09:21:15;;;;;;;9.05;4.47;;;;;;;7.86;82.24;98515.25;4482794;32;34474;-80
2022/11/23 09:23:43;;;;;;;8.00;4.12;;;;;;;7.84;82.32;98509.16;4478925;32;34446;-81
2022/11/23 09:26:10;;;;;;;6.85;3.62;;;;;;;8.15;81.08;98512.78;4481920;31;33672;-79
2022/11/23 09:28:38;;;;;;;6.12;3.12;;;;;;;8.22;80.30;98507.87;4483475;31;33073;-80
2022/11/23 09:31:11;;;;;;;8.05;4.05;;;;;;;8.06;81.05;98511.66;4484495;31;33686;-80
2022/11/23 09:33:38;;;;;;;9.07;5.20;;;;;;;8.24;80.48;98502.78;4482648;31;34283;-80
2022/11/23 09:36:06;;;;;;;7.37;4.37;;;;;;;8.47;79.56;98503.56;4481609;31;34304;-81
2022/11/23 09:38:34;;;;;;;7.75;3.60;;;;;;;8.26;80.20;98504.56;4488074;31;33267;-82
2022/11/23 09:41:52;;;;;;;7.62;3.10;;;;;;;8.24;80.60;98502.78;4484930;31;33780;-79
2022/11/23 09:44:42;;;;;;;12.18;5.75;;;;;;;8.14;80.84;98499.00;4477635;31;32615;-80
2022/11/23 09:47:43;;;;;;;6.72;3.67;;;;;;;8.20;81.10;98494.06;4480366;31;34373;-80
2022/11/23 09:50:21;;;;;;;7.32;3.25;;;;;;;8.08;81.48;98502.25;4488087;31;33368;-81
2022/11/23 09:52:48;;;;;;;6.62;2.80;;;;;;;8.36;80.54;98495.44;4479122;31;34627;-81
2022/11/23 09:55:38;;;;;;;5.90;2.97;;;;;;;8.17;81.55;98498.22;4465594;31;32276;-80
2022/11/23 09:58:06;;;;;;;8.52;3.30;;;;;;;8.38;80.25;98491.22;4484541;31;33750;-80
2022/11/23 10:00:42;;;;;;;7.12;3.40;;;;;;;8.69;79.05;98489.63;4478315;31;33225;-79
2022/11/23 10:03:14;;;;;;;6.68;3.22;;;;;;;8.56;79.66;98487.50;4481488;31;33496;-79
2022/11/23 10:05:49;;;;;;;7.85;3.50;;;;;;;8.37;80.21;98486.88;4473377;31;32386;-80
2022/11/23 10:08:30;;;;;;;6.85;3.60;;;;;;;8.61;79.44;98485.94;4476357;31;33062;-81
2022/11/23 10:11:23;;;;;;;7.70;3.08;;;;;;;8.46;80.39;98487.22;4478389;31;33953;-80
2022/11/23 10:14:05;;;;;;;6.53;3.15;;;;;;;7.92;82.82;98496.53;4483237;31;33380;-80
2022/11/23 10:16:42;;;;;;;6.62;3.30;;;;;;;8.34;81.41;98486.75;4491220;31;32398;-79
2022/11/23 10:19:13;;;;;;;5.97;3.25;;;;;;;8.26;81.05;98488.22;4483484;31;34544;-80
2022/11/23 10:22:03;;;;;;;5.55;3.05;;;;;;;8.56;80.08;98485.78;4480375;31;33684;-81
2022/11/23 10:24:41;;;;;;;6.22;2.85;;;;;;;8.00;82.81;98493.41;4478877;31;34433;-80
2022/11/23 10:27:14;;;;;;;5.95;3.08;;;;;;;8.07;82.43;98482.47;4475152;31;33857;-80
2022/11/23 10:29:43;;;;;;;6.85;3.17;;;;;;;7.77;84.44;98491.75;4480273;31;33954;-80
2022/11/23 10:32:31;;;;;;;7.55;3.10;;;;;;;8.08;82.72;98473.91;4486561;31;33298;-81
2022/11/23 10:35:12;;;;;;;6.93;3.72;;;;;;;8.16;82.62;98483.59;4474166;31;34868;-80
2022/11/23 10:37:40;;;;;;;7.87;3.83;;;;;;;8.33;81.88;98479.88;4486531;31;34839;-80
2022/11/23 10:40:23;;;;;;;6.40;3.47;;;;;;;8.56;81.27;98472.03;4491071;31;33988;-81
2022/11/23 10:42:55;;;;;;;7.30;3.47;;;;;;;8.03;82.81;98478.00;4482402;31;33777;-81
2022/11/23 10:45:24;;;;;;;6.22;3.10;;;;;;;8.13;82.35;98481.81;4475261;31;33950;-81
2022/11/23 10:47:54;;;;;;;5.97;3.40;;;;;;;8.00;83.54;98485.66;4482810;31;34371;-81
2022/11/23 10:50:24;;;;;;;6.40;3.42;;;;;;;8.22;82.87;98487.25;4491609;31;34192;-80
2022/11/23 10:52:58;;;;;;;7.12;3.47;;;;;;;8.48;81.22;98481.19;4489825;31;34229;-82
2022/11/23 10:55:33;;;;;;;7.12;3.60;;;;;;;8.34;81.57;98486.75;4485614;31;33593;-79
2022/11/23 10:58:01;;;;;;;7.03;3.60;;;;;;;8.32;81.50;98479.81;4474920;31;33647;-79
2022/11/23 11:00:29;;;;;;;5.70;3.00;;;;;;;8.55;80.90;98470.25;4488627;31;33584;-80
2022/11/23 11:02:58;;;;;;;7.22;3.37;;;;;;;8.05;82.33;98473.81;4485100;31;33074;-81
2022/11/23 11:05:35;;;;;;;5.47;2.92;;;;;;;8.60;80.76;98476.44;4467878;32;33994;-81
2022/11/23 11:08:28;;;;;;;7.25;3.10;;;;;;;8.21;82.13;98476.91;4476465;32;34650;-79
2022/11/23 11:10:57;;;;;;;5.62;3.28;;;;;;;8.33;82.01;98474.69;4480540;32;33460;-80
2022/11/23 11:13:45;;;;;;;7.00;3.30;;;;;;;8.00;83.14;98475.34;4483187;32;33361;-79
2022/11/23 11:16:32;;;;;;;7.25;3.37;;;;;;;8.45;80.66;98469.97;4481878;31;34051;-80
2022/11/23 11:19:22;;;;;;;7.18;3.53;;;;;;;7.68;84.04;98480.25;4483238;31;34552;-80
2022/11/23 11:21:49;;;;;;;5.25;3.00;;;;;;;8.28;82.00;98469.37;4482976;31;33682;-81
2022/11/23 11:24:26;;;;;;;5.75;3.08;;;;;;;8.40;80.93;98466.34;4482820;32;33079;-80
2022/11/23 11:27:00;;;;;;;8.48;4.10;;;;;;;8.33;81.75;98464.38;4478300;32;33582;-80
2022/11/23 11:29:45;;;;;;;7.37;4.45;;;;;;;8.34;82.30;98466.12;4471819;31;34100;-80
2022/11/23 11:32:14;;;;;;;;;;;;;;;8.57;80.76;98472.03;4477569;31;33734;-80
2022/11/23 11:34:52;;;;;;;6.47;3.92;;;;;;;8.89;79.10;98471.31;4481633;32;33053;-79
2022/11/23 11:37:32;;;;;;;8.07;3.87;;;;;;;8.29;81.36;98478.00;4481676;32;33411;-79
2022/11/23 11:40:02;;;;;;;7.82;4.03;;;;;;;8.44;81.02;98480.22;4480823;31;33656;-79
2022/11/23 11:42:59;;;;;;;7.10;3.92;;;;;;;8.61;79.82;98475.59;4482241;31;34076;-79
2022/11/23 11:45:30;;;;;;;9.20;4.15;;;;;;;8.95;78.65;98476.66;4467375;31;33197;-79
2022/11/23 11:48:00;;;;;;;8.25;4.57;;;;;;;8.95;78.22;98471.47;4493847;31;34465;-81
2022/11/23 11:50:41;;;;;;;7.62;5.00;;;;;;;9.18;77.30;98475.59;4474146;31;34655;-79
2022/11/23 11:53:17;;;;;;;9.30;5.35;;;;;;;8.63;79.75;98479.09;4478576;31;33817;-79